sensor_id;sensor_type;location;lat;lon;timestamp;P1;durP1;ratioP1;P2;durP2;ratioP2
16543;SDS011;8384;47.996;7.786;2022-12-29T00:02:10;3.20;;;0.80;;
16543;SDS011;8384;47.996;7.786;2022-12-29T00:04:36;1.70;;;1.03;;
16543;SDS011;8384;47.996;7.786;2022-12-29T00:07:01;3.07;;;1.30;;
16543;SDS011;8384;47.996;7.786;2022-12-29T00:09:29;1.80;;;0.73;;
16543;SDS011;8384;47.996;7.786;2022-12-29T00:11:55;1.60;;;1.10;;
16543;SDS011;8384;47.996;7.786;2022-12-29T00:14:20;2.27;;;0.90;;
16543;SDS011;8384;47.996;7.786;2022-12-29T00:17:04;1.97;;;1.00;;
16543;SDS011;8384;47.996;7.786;2022-12-29T00:19:29;3.23;;;1.00;;
16543;SDS011;8384;47.996;7.786;2022-12-29T00:22:13;2.03;;;1.10;;
16543;SDS011;8384;47.996;7.786;2022-12-29T00:24:58;3.57;;;0.90;;
16543;SDS011;8384;47.996;7.786;2022-12-29T00:27:46;1.77;;;0.97;;
16543;SDS011;8384;47.996;7.786;2022-12-29T00:30:30;2.23;;;1.00;;
16543;SDS011;8384;47.996;7.786;2022-12-29T00:33:18;2.87;;;1.10;;
16543;SDS011;8384;47.996;7.786;2022-12-29T00:38:55;2.07;;;1.17;;
16543;SDS011;8384;47.996;7.786;2022-12-29T00:41:42;2.23;;;0.80;;
16543;SDS011;8384;47.996;7.786;2022-12-29T00:44:26;2.37;;;1.10;;
16543;SDS011;8384;47.996;7.786;2022-12-29T00:46:51;1.40;;;0.70;;
16543;SDS011;8384;47.996;7.786;2022-12-29T00:49:17;3.73;;;1.20;;
16543;SDS011;8384;47.996;7.786;2022-12-29T00:51:59;1.43;;;0.80;;
16543;SDS011;8384;47.996;7.786;2022-12-29T00:54:24;1.77;;;1.03;;
16543;SDS011;8384;47.996;7.786;2022-12-29T00:56:50;2.70;;;1.10;;
16543;SDS011;8384;47.996;7.786;2022-12-29T00:59:17;2.07;;;0.90;;
16543;SDS011;8384;47.996;7.786;2022-12-29T01:01:43;3.50;;;1.20;;
16543;SDS011;8384;47.996;7.786;2022-12-29T01:04:09;1.87;;;1.00;;
16543;SDS011;8384;47.996;7.786;2022-12-29T01:06:35;3.40;;;0.90;;
16543;SDS011;8384;47.996;7.786;2022-12-29T01:09:02;1.90;;;1.10;;
16543;SDS011;8384;47.996;7.786;2022-12-29T01:11:46;1.27;;;0.90;;
16543;SDS011;8384;47.996;7.786;2022-12-29T01:14:11;2.20;;;0.83;;
16543;SDS011;8384;47.996;7.786;2022-12-29T01:16:37;1.87;;;1.10;;
16543;SDS011;8384;47.996;7.786;2022-12-29T01:19:03;3.03;;;1.07;;
16543;SDS011;8384;47.996;7.786;2022-12-29T01:21:29;2.90;;;1.00;;
16543;SDS011;8384;47.996;7.786;2022-12-29T01:23:54;2.03;;;1.00;;
16543;SDS011;8384;47.996;7.786;2022-12-29T01:26:20;3.10;;;1.03;;
16543;SDS011;8384;47.996;7.786;2022-12-29T01:28:45;1.30;;;0.87;;
16543;SDS011;8384;47.996;7.786;2022-12-29T01:31:11;1.40;;;1.00;;
16543;SDS011;8384;47.996;7.786;2022-12-29T01:33:38;1.60;;;1.00;;
16543;SDS011;8384;47.996;7.786;2022-12-29T01:36:04;1.33;;;1.00;;
16543;SDS011;8384;47.996;7.786;2022-12-29T01:38:33;2.47;;;1.20;;
16543;SDS011;8384;47.996;7.786;2022-12-29T01:40:59;1.90;;;1.00;;
16543;SDS011;8384;47.996;7.786;2022-12-29T01:46:36;2.50;;;1.10;;
16543;SDS011;8384;47.996;7.786;2022-12-29T01:51:40;1.67;;;1.20;;
16543;SDS011;8384;47.996;7.786;2022-12-29T01:54:28;2.20;;;0.93;;
16543;SDS011;8384;47.996;7.786;2022-12-29T01:57:01;2.50;;;1.03;;
16543;SDS011;8384;47.996;7.786;2022-12-29T01:59:31;1.90;;;1.00;;
16543;SDS011;8384;47.996;7.786;2022-12-29T02:01:59;2.13;;;1.17;;
16543;SDS011;8384;47.996;7.786;2022-12-29T02:04:25;3.27;;;1.00;;
16543;SDS011;8384;47.996;7.786;2022-12-29T02:06:53;2.03;;;1.10;;
16543;SDS011;8384;47.996;7.786;2022-12-29T02:09:22;1.27;;;0.77;;
16543;SDS011;8384;47.996;7.786;2022-12-29T02:11:48;2.97;;;1.07;;
16543;SDS011;8384;47.996;7.786;2022-12-29T02:14:14;2.13;;;1.00;;
16543;SDS011;8384;47.996;7.786;2022-12-29T02:20:11;1.83;;;1.03;;
16543;SDS011;8384;47.996;7.786;2022-12-29T02:22:14;1.63;;;0.73;;
16543;SDS011;8384;47.996;7.786;2022-12-29T02:40:53;3.10;;;1.77;;
16543;SDS011;8384;47.996;7.786;2022-12-29T02:43:32;4.83;;;1.40;;
16543;SDS011;8384;47.996;7.786;2022-12-29T02:46:06;1.17;;;1.00;;
16543;SDS011;8384;47.996;7.786;2022-12-29T02:48:45;3.23;;;1.30;;
16543;SDS011;8384;47.996;7.786;2022-12-29T02:51:24;2.17;;;1.40;;
16543;SDS011;8384;47.996;7.786;2022-12-29T02:53:54;2.93;;;1.27;;
16543;SDS011;8384;47.996;7.786;2022-12-29T02:56:40;2.53;;;1.20;;
16543;SDS011;8384;47.996;7.786;2022-12-29T02:59:06;3.60;;;1.23;;
16543;SDS011;8384;47.996;7.786;2022-12-29T03:01:53;2.63;;;1.30;;
16543;SDS011;8384;47.996;7.786;2022-12-29T03:16:02;3.67;;;1.40;;
16543;SDS011;8384;47.996;7.786;2022-12-29T03:19:07;2.47;;;1.33;;
16543;SDS011;8384;47.996;7.786;2022-12-29T03:21:41;4.00;;;1.60;;
16543;SDS011;8384;47.996;7.786;2022-12-29T03:24:30;2.40;;;1.00;;
16543;SDS011;8384;47.996;7.786;2022-12-29T03:26:59;2.50;;;1.30;;
16543;SDS011;8384;47.996;7.786;2022-12-29T03:29:27;1.73;;;1.40;;
16543;SDS011;8384;47.996;7.786;2022-12-29T03:31:55;2.03;;;1.40;;
16543;SDS011;8384;47.996;7.786;2022-12-29T03:34:22;3.03;;;1.47;;
16543;SDS011;8384;47.996;7.786;2022-12-29T03:36:54;2.73;;;1.47;;
16543;SDS011;8384;47.996;7.786;2022-12-29T03:39:24;2.80;;;1.40;;
16543;SDS011;8384;47.996;7.786;2022-12-29T03:41:50;1.57;;;1.47;;
16543;SDS011;8384;47.996;7.786;2022-12-29T03:44:35;2.37;;;1.53;;
16543;SDS011;8384;47.996;7.786;2022-12-29T03:47:04;3.30;;;1.50;;
16543;SDS011;8384;47.996;7.786;2022-12-29T03:49:30;3.13;;;1.40;;
16543;SDS011;8384;47.996;7.786;2022-12-29T03:51:55;2.47;;;1.37;;
16543;SDS011;8384;47.996;7.786;2022-12-29T03:54:21;1.73;;;1.63;;
16543;SDS011;8384;47.996;7.786;2022-12-29T03:56:46;3.03;;;1.60;;
16543;SDS011;8384;47.996;7.786;2022-12-29T03:59:11;1.70;;;1.60;;
16543;SDS011;8384;47.996;7.786;2022-12-29T04:01:37;2.03;;;1.83;;
16543;SDS011;8384;47.996;7.786;2022-12-29T04:04:03;2.83;;;1.67;;
16543;SDS011;8384;47.996;7.786;2022-12-29T04:06:28;2.90;;;1.97;;
16543;SDS011;8384;47.996;7.786;2022-12-29T04:08:53;4.40;;;1.70;;
16543;SDS011;8384;47.996;7.786;2022-12-29T04:11:19;2.23;;;2.00;;
16543;SDS011;8384;47.996;7.786;2022-12-29T04:13:45;3.73;;;1.80;;
16543;SDS011;8384;47.996;7.786;2022-12-29T04:16:11;2.20;;;1.80;;
16543;SDS011;8384;47.996;7.786;2022-12-29T04:18:36;3.17;;;1.87;;
16543;SDS011;8384;47.996;7.786;2022-12-29T04:21:01;3.20;;;2.00;;
16543;SDS011;8384;47.996;7.786;2022-12-29T04:23:29;5.17;;;2.10;;
16543;SDS011;8384;47.996;7.786;2022-12-29T04:25:55;2.53;;;1.80;;
16543;SDS011;8384;47.996;7.786;2022-12-29T04:28:21;3.27;;;2.10;;
16543;SDS011;8384;47.996;7.786;2022-12-29T04:30:46;2.47;;;1.70;;
16543;SDS011;8384;47.996;7.786;2022-12-29T04:33:11;2.43;;;2.10;;
16543;SDS011;8384;47.996;7.786;2022-12-29T04:35:37;2.87;;;1.80;;
16543;SDS011;8384;47.996;7.786;2022-12-29T04:38:02;2.00;;;1.80;;
16543;SDS011;8384;47.996;7.786;2022-12-29T04:40:28;3.97;;;1.73;;
16543;SDS011;8384;47.996;7.786;2022-12-29T04:42:53;3.77;;;2.00;;
16543;SDS011;8384;47.996;7.786;2022-12-29T04:45:19;3.30;;;2.20;;
16543;SDS011;8384;47.996;7.786;2022-12-29T04:47:44;4.70;;;1.97;;
16543;SDS011;8384;47.996;7.786;2022-12-29T04:50:10;3.63;;;2.60;;
16543;SDS011;8384;47.996;7.786;2022-12-29T04:52:35;3.73;;;1.97;;
16543;SDS011;8384;47.996;7.786;2022-12-29T04:55:00;4.47;;;2.27;;
16543;SDS011;8384;47.996;7.786;2022-12-29T04:57:26;3.47;;;2.00;;
16543;SDS011;8384;47.996;7.786;2022-12-29T04:59:51;2.70;;;1.70;;
16543;SDS011;8384;47.996;7.786;2022-12-29T05:02:16;3.00;;;1.57;;
16543;SDS011;8384;47.996;7.786;2022-12-29T05:04:42;3.30;;;2.00;;
16543;SDS011;8384;47.996;7.786;2022-12-29T05:07:07;2.77;;;1.97;;
16543;SDS011;8384;47.996;7.786;2022-12-29T05:09:33;2.90;;;2.00;;
16543;SDS011;8384;47.996;7.786;2022-12-29T05:11:58;2.87;;;2.03;;
16543;SDS011;8384;47.996;7.786;2022-12-29T05:14:24;2.37;;;1.90;;
16543;SDS011;8384;47.996;7.786;2022-12-29T05:16:49;2.63;;;1.50;;
16543;SDS011;8384;47.996;7.786;2022-12-29T05:19:14;3.40;;;1.60;;
16543;SDS011;8384;47.996;7.786;2022-12-29T05:21:40;2.90;;;1.77;;
16543;SDS011;8384;47.996;7.786;2022-12-29T05:24:05;3.33;;;1.80;;
16543;SDS011;8384;47.996;7.786;2022-12-29T05:26:30;3.83;;;1.30;;
16543;SDS011;8384;47.996;7.786;2022-12-29T05:28:56;3.90;;;1.47;;
16543;SDS011;8384;47.996;7.786;2022-12-29T05:31:21;1.70;;;1.30;;
16543;SDS011;8384;47.996;7.786;2022-12-29T05:33:46;2.50;;;1.43;;
16543;SDS011;8384;47.996;7.786;2022-12-29T05:36:11;2.93;;;1.63;;
16543;SDS011;8384;47.996;7.786;2022-12-29T05:38:37;2.93;;;1.23;;
16543;SDS011;8384;47.996;7.786;2022-12-29T05:41:02;3.67;;;1.47;;
16543;SDS011;8384;47.996;7.786;2022-12-29T05:43:28;3.17;;;1.10;;
16543;SDS011;8384;47.996;7.786;2022-12-29T05:45:53;2.00;;;1.43;;
16543;SDS011;8384;47.996;7.786;2022-12-29T05:48:19;3.77;;;1.20;;
16543;SDS011;8384;47.996;7.786;2022-12-29T05:50:48;2.83;;;1.10;;
16543;SDS011;8384;47.996;7.786;2022-12-29T05:53:14;1.20;;;1.10;;
16543;SDS011;8384;47.996;7.786;2022-12-29T05:55:39;1.53;;;1.30;;
16543;SDS011;8384;47.996;7.786;2022-12-29T05:58:05;3.07;;;1.43;;
16543;SDS011;8384;47.996;7.786;2022-12-29T06:00:30;1.70;;;1.20;;
16543;SDS011;8384;47.996;7.786;2022-12-29T06:02:55;1.50;;;1.10;;
16543;SDS011;8384;47.996;7.786;2022-12-29T06:05:21;2.30;;;1.70;;
16543;SDS011;8384;47.996;7.786;2022-12-29T06:07:46;4.17;;;1.40;;
16543;SDS011;8384;47.996;7.786;2022-12-29T06:10:11;7.33;;;1.60;;
16543;SDS011;8384;47.996;7.786;2022-12-29T06:12:36;2.13;;;1.30;;
16543;SDS011;8384;47.996;7.786;2022-12-29T06:15:02;1.73;;;1.30;;
16543;SDS011;8384;47.996;7.786;2022-12-29T06:17:27;2.07;;;1.33;;
16543;SDS011;8384;47.996;7.786;2022-12-29T06:19:53;1.20;;;1.10;;
16543;SDS011;8384;47.996;7.786;2022-12-29T06:22:18;2.23;;;1.20;;
16543;SDS011;8384;47.996;7.786;2022-12-29T06:24:43;1.83;;;1.30;;
16543;SDS011;8384;47.996;7.786;2022-12-29T06:27:08;3.23;;;1.10;;
16543;SDS011;8384;47.996;7.786;2022-12-29T06:29:34;3.87;;;1.67;;
16543;SDS011;8384;47.996;7.786;2022-12-29T06:32:01;1.90;;;1.20;;
16543;SDS011;8384;47.996;7.786;2022-12-29T06:34:27;1.57;;;1.20;;
16543;SDS011;8384;47.996;7.786;2022-12-29T06:36:52;1.10;;;1.00;;
16543;SDS011;8384;47.996;7.786;2022-12-29T06:39:18;1.20;;;1.03;;
16543;SDS011;8384;47.996;7.786;2022-12-29T06:41:43;2.83;;;1.23;;
16543;SDS011;8384;47.996;7.786;2022-12-29T06:44:08;1.53;;;1.17;;
16543;SDS011;8384;47.996;7.786;2022-12-29T06:46:34;2.43;;;1.40;;
16543;SDS011;8384;47.996;7.786;2022-12-29T06:48:59;2.00;;;1.37;;
16543;SDS011;8384;47.996;7.786;2022-12-29T06:51:24;2.37;;;1.10;;
16543;SDS011;8384;47.996;7.786;2022-12-29T06:53:49;1.27;;;1.00;;
16543;SDS011;8384;47.996;7.786;2022-12-29T06:56:15;1.47;;;1.20;;
16543;SDS011;8384;47.996;7.786;2022-12-29T06:58:40;2.63;;;1.20;;
16543;SDS011;8384;47.996;7.786;2022-12-29T07:01:05;1.50;;;1.10;;
16543;SDS011;8384;47.996;7.786;2022-12-29T07:03:30;2.77;;;1.20;;
16543;SDS011;8384;47.996;7.786;2022-12-29T07:05:56;1.90;;;1.03;;
16543;SDS011;8384;47.996;7.786;2022-12-29T07:08:22;1.50;;;1.10;;
16543;SDS011;8384;47.996;7.786;2022-12-29T07:10:48;1.37;;;1.13;;
16543;SDS011;8384;47.996;7.786;2022-12-29T07:13:13;1.10;;;1.00;;
16543;SDS011;8384;47.996;7.786;2022-12-29T07:15:39;1.10;;;1.00;;
16543;SDS011;8384;47.996;7.786;2022-12-29T07:18:04;1.57;;;1.10;;
16543;SDS011;8384;47.996;7.786;2022-12-29T07:20:30;1.87;;;1.10;;
16543;SDS011;8384;47.996;7.786;2022-12-29T07:22:55;1.90;;;1.10;;
16543;SDS011;8384;47.996;7.786;2022-12-29T07:25:21;1.57;;;1.03;;
16543;SDS011;8384;47.996;7.786;2022-12-29T07:27:47;3.70;;;1.43;;
16543;SDS011;8384;47.996;7.786;2022-12-29T07:30:13;2.40;;;1.30;;
16543;SDS011;8384;47.996;7.786;2022-12-29T07:32:39;1.80;;;1.20;;
16543;SDS011;8384;47.996;7.786;2022-12-29T07:35:04;1.40;;;1.20;;
16543;SDS011;8384;47.996;7.786;2022-12-29T07:37:30;2.47;;;1.30;;
16543;SDS011;8384;47.996;7.786;2022-12-29T07:39:55;3.20;;;1.00;;
16543;SDS011;8384;47.996;7.786;2022-12-29T07:42:20;1.57;;;1.20;;
16543;SDS011;8384;47.996;7.786;2022-12-29T07:44:46;1.90;;;1.20;;
16543;SDS011;8384;47.996;7.786;2022-12-29T07:47:11;1.27;;;1.17;;
16543;SDS011;8384;47.996;7.786;2022-12-29T07:49:36;2.63;;;1.23;;
16543;SDS011;8384;47.996;7.786;2022-12-29T07:52:01;1.63;;;1.20;;
16543;SDS011;8384;47.996;7.786;2022-12-29T07:54:27;2.27;;;0.90;;
16543;SDS011;8384;47.996;7.786;2022-12-29T07:56:52;1.30;;;1.10;;
16543;SDS011;8384;47.996;7.786;2022-12-29T07:59:17;1.80;;;1.10;;
16543;SDS011;8384;47.996;7.786;2022-12-29T08:01:43;2.17;;;1.40;;
16543;SDS011;8384;47.996;7.786;2022-12-29T08:04:08;2.27;;;1.23;;
16543;SDS011;8384;47.996;7.786;2022-12-29T08:06:33;2.27;;;1.13;;
16543;SDS011;8384;47.996;7.786;2022-12-29T08:08:59;1.37;;;1.13;;
16543;SDS011;8384;47.996;7.786;2022-12-29T08:11:25;1.97;;;1.10;;
16543;SDS011;8384;47.996;7.786;2022-12-29T08:13:51;2.67;;;1.03;;
16543;SDS011;8384;47.996;7.786;2022-12-29T08:16:16;1.47;;;1.30;;
16543;SDS011;8384;47.996;7.786;2022-12-29T08:18:41;3.20;;;1.27;;
16543;SDS011;8384;47.996;7.786;2022-12-29T08:21:07;1.33;;;1.00;;
16543;SDS011;8384;47.996;7.786;2022-12-29T08:23:32;2.13;;;0.97;;
16543;SDS011;8384;47.996;7.786;2022-12-29T08:26:01;1.40;;;0.90;;
16543;SDS011;8384;47.996;7.786;2022-12-29T08:28:29;1.03;;;0.87;;
16543;SDS011;8384;47.996;7.786;2022-12-29T08:30:56;1.43;;;1.03;;
16543;SDS011;8384;47.996;7.786;2022-12-29T08:33:23;1.47;;;1.03;;
16543;SDS011;8384;47.996;7.786;2022-12-29T08:35:48;2.10;;;1.30;;
16543;SDS011;8384;47.996;7.786;2022-12-29T08:38:14;2.90;;;1.10;;
16543;SDS011;8384;47.996;7.786;2022-12-29T08:40:39;2.07;;;1.37;;
16543;SDS011;8384;47.996;7.786;2022-12-29T08:43:05;1.93;;;1.03;;
16543;SDS011;8384;47.996;7.786;2022-12-29T08:45:31;2.10;;;1.13;;
16543;SDS011;8384;47.996;7.786;2022-12-29T08:47:57;1.20;;;0.90;;
16543;SDS011;8384;47.996;7.786;2022-12-29T08:50:23;1.90;;;1.10;;
16543;SDS011;8384;47.996;7.786;2022-12-29T08:52:48;0.80;;;0.80;;
16543;SDS011;8384;47.996;7.786;2022-12-29T08:55:13;3.53;;;1.23;;
16543;SDS011;8384;47.996;7.786;2022-12-29T08:57:39;2.83;;;1.40;;
16543;SDS011;8384;47.996;7.786;2022-12-29T09:00:04;1.20;;;1.07;;
16543;SDS011;8384;47.996;7.786;2022-12-29T09:02:30;3.20;;;1.00;;
16543;SDS011;8384;47.996;7.786;2022-12-29T09:04:56;2.30;;;1.23;;
16543;SDS011;8384;47.996;7.786;2022-12-29T09:07:22;2.17;;;1.20;;
16543;SDS011;8384;47.996;7.786;2022-12-29T09:09:48;1.63;;;1.10;;
16543;SDS011;8384;47.996;7.786;2022-12-29T09:12:14;1.27;;;1.10;;
16543;SDS011;8384;47.996;7.786;2022-12-29T09:14:39;1.10;;;0.90;;
16543;SDS011;8384;47.996;7.786;2022-12-29T09:17:05;2.53;;;1.37;;
16543;SDS011;8384;47.996;7.786;2022-12-29T09:19:48;1.70;;;1.00;;
16543;SDS011;8384;47.996;7.786;2022-12-29T09:22:14;1.47;;;1.07;;
16543;SDS011;8384;47.996;7.786;2022-12-29T09:24:39;1.53;;;1.03;;
16543;SDS011;8384;47.996;7.786;2022-12-29T09:27:04;1.70;;;1.30;;
16543;SDS011;8384;47.996;7.786;2022-12-29T09:29:30;2.57;;;1.10;;
16543;SDS011;8384;47.996;7.786;2022-12-29T09:31:55;4.03;;;1.40;;
16543;SDS011;8384;47.996;7.786;2022-12-29T09:34:20;2.60;;;1.30;;
16543;SDS011;8384;47.996;7.786;2022-12-29T09:36:46;1.57;;;1.13;;
16543;SDS011;8384;47.996;7.786;2022-12-29T09:39:12;1.60;;;1.20;;
16543;SDS011;8384;47.996;7.786;2022-12-29T09:41:52;2.20;;;1.30;;
16543;SDS011;8384;47.996;7.786;2022-12-29T09:44:23;2.67;;;1.40;;
16543;SDS011;8384;47.996;7.786;2022-12-29T09:46:56;4.83;;;1.50;;
16543;SDS011;8384;47.996;7.786;2022-12-29T09:49:28;2.10;;;1.60;;
16543;SDS011;8384;47.996;7.786;2022-12-29T09:52:28;3.03;;;1.50;;
16543;SDS011;8384;47.996;7.786;2022-12-29T09:55:31;2.13;;;1.27;;
16543;SDS011;8384;47.996;7.786;2022-12-29T09:57:54;2.30;;;1.60;;
16543;SDS011;8384;47.996;7.786;2022-12-29T10:00:36;1.87;;;1.33;;
16543;SDS011;8384;47.996;7.786;2022-12-29T10:03:10;4.33;;;1.77;;
16543;SDS011;8384;47.996;7.786;2022-12-29T10:13:55;3.87;;;1.67;;
16543;SDS011;8384;47.996;7.786;2022-12-29T10:24:44;4.53;;;1.63;;
16543;SDS011;8384;47.996;7.786;2022-12-29T10:27:14;4.03;;;1.80;;
16543;SDS011;8384;47.996;7.786;2022-12-29T10:29:48;3.53;;;2.03;;
16543;SDS011;8384;47.996;7.786;2022-12-29T10:32:25;2.77;;;1.93;;
16543;SDS011;8384;47.996;7.786;2022-12-29T10:34:53;3.20;;;2.07;;
16543;SDS011;8384;47.996;7.786;2022-12-29T10:37:27;3.77;;;1.87;;
16543;SDS011;8384;47.996;7.786;2022-12-29T10:40:11;1.97;;;1.50;;
16543;SDS011;8384;47.996;7.786;2022-12-29T10:42:43;2.83;;;2.00;;
16543;SDS011;8384;47.996;7.786;2022-12-29T10:45:12;3.53;;;1.90;;
16543;SDS011;8384;47.996;7.786;2022-12-29T10:47:45;2.83;;;1.70;;
16543;SDS011;8384;47.996;7.786;2022-12-29T10:50:17;1.90;;;1.70;;
16543;SDS011;8384;47.996;7.786;2022-12-29T10:52:42;2.40;;;1.87;;
16543;SDS011;8384;47.996;7.786;2022-12-29T10:55:12;3.53;;;2.10;;
16543;SDS011;8384;47.996;7.786;2022-12-29T10:57:43;3.30;;;1.90;;
16543;SDS011;8384;47.996;7.786;2022-12-29T11:00:13;4.20;;;1.80;;
16543;SDS011;8384;47.996;7.786;2022-12-29T11:05:44;1.90;;;1.60;;
16543;SDS011;8384;47.996;7.786;2022-12-29T11:08:16;2.67;;;1.70;;
16543;SDS011;8384;47.996;7.786;2022-12-29T11:10:44;3.40;;;1.70;;
16543;SDS011;8384;47.996;7.786;2022-12-29T11:13:12;3.87;;;1.70;;
16543;SDS011;8384;47.996;7.786;2022-12-29T11:15:41;2.00;;;1.70;;
16543;SDS011;8384;47.996;7.786;2022-12-29T11:18:17;3.10;;;2.00;;
16543;SDS011;8384;47.996;7.786;2022-12-29T11:20:43;2.27;;;1.80;;
16543;SDS011;8384;47.996;7.786;2022-12-29T11:23:25;3.13;;;2.20;;
16543;SDS011;8384;47.996;7.786;2022-12-29T11:28:40;2.90;;;1.90;;
16543;SDS011;8384;47.996;7.786;2022-12-29T11:31:08;2.80;;;1.80;;
16543;SDS011;8384;47.996;7.786;2022-12-29T11:33:34;2.13;;;1.43;;
16543;SDS011;8384;47.996;7.786;2022-12-29T11:36:02;3.20;;;1.70;;
16543;SDS011;8384;47.996;7.786;2022-12-29T11:38:35;1.40;;;1.30;;
16543;SDS011;8384;47.996;7.786;2022-12-29T11:41:04;3.20;;;1.67;;
16543;SDS011;8384;47.996;7.786;2022-12-29T11:43:32;1.77;;;1.33;;
16543;SDS011;8384;47.996;7.786;2022-12-29T11:46:02;1.70;;;1.50;;
16543;SDS011;8384;47.996;7.786;2022-12-29T11:48:32;2.97;;;1.30;;
16543;SDS011;8384;47.996;7.786;2022-12-29T11:51:04;1.37;;;1.20;;
16543;SDS011;8384;47.996;7.786;2022-12-29T11:54:04;2.47;;;1.50;;
16543;SDS011;8384;47.996;7.786;2022-12-29T11:56:37;3.03;;;1.47;;
16543;SDS011;8384;47.996;7.786;2022-12-29T12:05:10;1.80;;;1.10;;
16543;SDS011;8384;47.996;7.786;2022-12-29T12:07:52;1.60;;;1.20;;
16543;SDS011;8384;47.996;7.786;2022-12-29T12:10:27;1.90;;;1.30;;
16543;SDS011;8384;47.996;7.786;2022-12-29T12:13:08;2.17;;;1.43;;
16543;SDS011;8384;47.996;7.786;2022-12-29T12:16:04;1.40;;;1.30;;
16543;SDS011;8384;47.996;7.786;2022-12-29T12:21:40;2.13;;;1.30;;
16543;SDS011;8384;47.996;7.786;2022-12-29T12:24:13;1.63;;;1.07;;
16543;SDS011;8384;47.996;7.786;2022-12-29T12:27:02;2.80;;;1.47;;
16543;SDS011;8384;47.996;7.786;2022-12-29T12:29:40;2.83;;;1.33;;
16543;SDS011;8384;47.996;7.786;2022-12-29T12:32:14;3.33;;;1.20;;
16543;SDS011;8384;47.996;7.786;2022-12-29T12:34:59;2.33;;;1.43;;
16543;SDS011;8384;47.996;7.786;2022-12-29T12:37:30;2.73;;;1.53;;
16543;SDS011;8384;47.996;7.786;2022-12-29T12:45:19;2.53;;;1.40;;
16543;SDS011;8384;47.996;7.786;2022-12-29T12:56:25;2.57;;;1.60;;
16543;SDS011;8384;47.996;7.786;2022-12-29T12:58:59;3.00;;;1.67;;
16543;SDS011;8384;47.996;7.786;2022-12-29T13:01:38;3.63;;;1.40;;
16543;SDS011;8384;47.996;7.786;2022-12-29T13:04:17;3.50;;;1.80;;
16543;SDS011;8384;47.996;7.786;2022-12-29T13:09:48;2.20;;;1.53;;
16543;SDS011;8384;47.996;7.786;2022-12-29T13:12:46;2.93;;;1.40;;
16543;SDS011;8384;47.996;7.786;2022-12-29T13:17:51;3.53;;;1.73;;
16543;SDS011;8384;47.996;7.786;2022-12-29T13:23:32;2.33;;;1.30;;
16543;SDS011;8384;47.996;7.786;2022-12-29T13:26:08;2.63;;;1.30;;
16543;SDS011;8384;47.996;7.786;2022-12-29T13:34:15;1.83;;;1.60;;
16543;SDS011;8384;47.996;7.786;2022-12-29T13:36:58;2.63;;;1.40;;
16543;SDS011;8384;47.996;7.786;2022-12-29T13:39:39;2.23;;;1.63;;
16543;SDS011;8384;47.996;7.786;2022-12-29T13:42:08;2.80;;;1.50;;
16543;SDS011;8384;47.996;7.786;2022-12-29T13:44:39;2.40;;;1.80;;
16543;SDS011;8384;47.996;7.786;2022-12-29T13:47:25;1.70;;;1.50;;
16543;SDS011;8384;47.996;7.786;2022-12-29T13:49:56;3.17;;;1.70;;
16543;SDS011;8384;47.996;7.786;2022-12-29T13:58:02;2.47;;;1.70;;
16543;SDS011;8384;47.996;7.786;2022-12-29T14:00:38;4.10;;;1.70;;
16543;SDS011;8384;47.996;7.786;2022-12-29T14:06:04;5.20;;;1.70;;
16543;SDS011;8384;47.996;7.786;2022-12-29T14:08:31;3.90;;;2.00;;
16543;SDS011;8384;47.996;7.786;2022-12-29T14:11:00;1.90;;;1.50;;
16543;SDS011;8384;47.996;7.786;2022-12-29T14:13:33;2.00;;;1.60;;
16543;SDS011;8384;47.996;7.786;2022-12-29T14:16:04;3.73;;;1.77;;
16543;SDS011;8384;47.996;7.786;2022-12-29T14:18:33;5.17;;;1.60;;
16543;SDS011;8384;47.996;7.786;2022-12-29T14:23:44;2.70;;;1.97;;
16543;SDS011;8384;47.996;7.786;2022-12-29T14:26:15;4.47;;;1.80;;
16543;SDS011;8384;47.996;7.786;2022-12-29T14:28:53;3.47;;;1.93;;
16543;SDS011;8384;47.996;7.786;2022-12-29T14:36:35;4.17;;;1.83;;
16543;SDS011;8384;47.996;7.786;2022-12-29T14:44:31;3.00;;;1.67;;
16543;SDS011;8384;47.996;7.786;2022-12-29T14:46:58;2.23;;;1.60;;
16543;SDS011;8384;47.996;7.786;2022-12-29T14:49:33;4.10;;;1.90;;
16543;SDS011;8384;47.996;7.786;2022-12-29T14:52:07;1.67;;;1.53;;
16543;SDS011;8384;47.996;7.786;2022-12-29T14:54:47;3.17;;;1.60;;
16543;SDS011;8384;47.996;7.786;2022-12-29T14:57:35;2.17;;;1.70;;
16543;SDS011;8384;47.996;7.786;2022-12-29T15:00:06;3.90;;;1.90;;
16543;SDS011;8384;47.996;7.786;2022-12-29T15:02:40;3.13;;;1.97;;
16543;SDS011;8384;47.996;7.786;2022-12-29T15:08:10;4.57;;;2.07;;
16543;SDS011;8384;47.996;7.786;2022-12-29T15:10:39;4.33;;;2.00;;
16543;SDS011;8384;47.996;7.786;2022-12-29T15:13:15;2.87;;;2.20;;
16543;SDS011;8384;47.996;7.786;2022-12-29T15:15:42;2.63;;;1.80;;
16543;SDS011;8384;47.996;7.786;2022-12-29T15:18:21;1.67;;;1.57;;
16543;SDS011;8384;47.996;7.786;2022-12-29T15:21:03;2.60;;;1.60;;
16543;SDS011;8384;47.996;7.786;2022-12-29T15:23:31;2.87;;;1.63;;
16543;SDS011;8384;47.996;7.786;2022-12-29T15:28:26;4.23;;;2.20;;
16543;SDS011;8384;47.996;7.786;2022-12-29T15:30:54;3.60;;;2.10;;
16543;SDS011;8384;47.996;7.786;2022-12-29T15:33:22;5.40;;;2.13;;
16543;SDS011;8384;47.996;7.786;2022-12-29T15:35:51;2.07;;;1.67;;
16543;SDS011;8384;47.996;7.786;2022-12-29T15:38:26;2.63;;;2.00;;
16543;SDS011;8384;47.996;7.786;2022-12-29T15:40:54;2.13;;;1.93;;
16543;SDS011;8384;47.996;7.786;2022-12-29T15:46:00;2.93;;;1.80;;
16543;SDS011;8384;47.996;7.786;2022-12-29T15:48:26;3.87;;;2.10;;
16543;SDS011;8384;47.996;7.786;2022-12-29T15:50:52;2.47;;;1.70;;
16543;SDS011;8384;47.996;7.786;2022-12-29T15:53:22;3.67;;;2.40;;
16543;SDS011;8384;47.996;7.786;2022-12-29T15:55:53;3.60;;;1.90;;
16543;SDS011;8384;47.996;7.786;2022-12-29T16:01:15;2.10;;;1.70;;
16543;SDS011;8384;47.996;7.786;2022-12-29T16:03:44;4.33;;;2.03;;
16543;SDS011;8384;47.996;7.786;2022-12-29T16:06:25;2.17;;;1.93;;
16543;SDS011;8384;47.996;7.786;2022-12-29T16:09:01;2.10;;;1.90;;
16543;SDS011;8384;47.996;7.786;2022-12-29T16:11:38;2.10;;;1.73;;
16543;SDS011;8384;47.996;7.786;2022-12-29T16:14:09;4.77;;;1.87;;
16543;SDS011;8384;47.996;7.786;2022-12-29T16:16:41;4.40;;;2.00;;
16543;SDS011;8384;47.996;7.786;2022-12-29T16:19:19;2.53;;;2.07;;
16543;SDS011;8384;47.996;7.786;2022-12-29T16:21:49;6.03;;;2.40;;
16543;SDS011;8384;47.996;7.786;2022-12-29T16:24:16;3.93;;;2.30;;
16543;SDS011;8384;47.996;7.786;2022-12-29T16:26:51;2.87;;;2.47;;
16543;SDS011;8384;47.996;7.786;2022-12-29T16:29:31;3.23;;;2.03;;
16543;SDS011;8384;47.996;7.786;2022-12-29T16:31:58;3.77;;;2.57;;
16543;SDS011;8384;47.996;7.786;2022-12-29T16:34:42;5.67;;;2.07;;
16543;SDS011;8384;47.996;7.786;2022-12-29T16:39:54;2.07;;;1.80;;
16543;SDS011;8384;47.996;7.786;2022-12-29T16:42:33;2.40;;;2.00;;
16543;SDS011;8384;47.996;7.786;2022-12-29T16:45:16;3.67;;;2.57;;
16543;SDS011;8384;47.996;7.786;2022-12-29T16:47:47;4.17;;;2.10;;
16543;SDS011;8384;47.996;7.786;2022-12-29T16:50:34;5.80;;;2.03;;
16543;SDS011;8384;47.996;7.786;2022-12-29T16:53:02;4.83;;;1.97;;
16543;SDS011;8384;47.996;7.786;2022-12-29T16:55:29;1.37;;;1.27;;
16543;SDS011;8384;47.996;7.786;2022-12-29T16:57:55;4.37;;;1.70;;
16543;SDS011;8384;47.996;7.786;2022-12-29T17:00:22;2.90;;;1.70;;
16543;SDS011;8384;47.996;7.786;2022-12-29T17:02:51;1.87;;;1.40;;
16543;SDS011;8384;47.996;7.786;2022-12-29T17:05:20;2.57;;;1.40;;
16543;SDS011;8384;47.996;7.786;2022-12-29T17:07:45;3.77;;;1.97;;
16543;SDS011;8384;47.996;7.786;2022-12-29T17:10:11;1.77;;;1.67;;
16543;SDS011;8384;47.996;7.786;2022-12-29T17:12:39;1.87;;;1.60;;
16543;SDS011;8384;47.996;7.786;2022-12-29T17:15:09;3.43;;;1.73;;
16543;SDS011;8384;47.996;7.786;2022-12-29T17:17:42;3.03;;;1.70;;
16543;SDS011;8384;47.996;7.786;2022-12-29T17:20:20;4.03;;;2.10;;
16543;SDS011;8384;47.996;7.786;2022-12-29T17:22:47;3.97;;;2.10;;
16543;SDS011;8384;47.996;7.786;2022-12-29T17:25:14;4.70;;;2.37;;
16543;SDS011;8384;47.996;7.786;2022-12-29T17:27:58;2.57;;;2.10;;
16543;SDS011;8384;47.996;7.786;2022-12-29T17:30:26;3.73;;;2.10;;
16543;SDS011;8384;47.996;7.786;2022-12-29T17:32:54;4.00;;;2.00;;